createdAt,value
2023-03-13T00:01:17.755Z,7.88
2023-03-13T00:03:47.621Z,7.75
2023-03-13T00:06:16.598Z,8.68
2023-03-13T00:08:46.046Z,7.70
2023-03-13T00:11:16.355Z,8.38
2023-03-13T00:13:45.186Z,7.78
2023-03-13T00:16:14.909Z,8.27
2023-03-13T00:18:48.429Z,7.40
2023-03-13T00:21:20.665Z,7.30
2023-03-13T00:23:49.309Z,8.00
2023-03-13T00:26:20.174Z,8.80
2023-03-13T00:28:48.993Z,8.60
2023-03-13T00:31:19.569Z,9.13
2023-03-13T00:33:51.829Z,8.65
2023-03-13T00:36:21.285Z,8.32
2023-03-13T00:38:49.763Z,7.82
2023-03-13T00:41:19.823Z,8.18
2023-03-13T00:43:49.423Z,7.55
2023-03-13T00:46:19.955Z,7.55
2023-03-13T00:48:50.131Z,7.90
2023-03-13T00:51:19.801Z,8.82
2023-03-13T00:53:48.563Z,7.63
2023-03-13T00:56:18.350Z,7.10
2023-03-13T00:58:47.876Z,7.60
2023-03-13T01:01:17.953Z,8.00
2023-03-13T01:03:49.265Z,7.85
2023-03-13T01:06:21.301Z,7.70
2023-03-13T01:08:50.151Z,8.20
2023-03-13T01:11:20.871Z,7.43
2023-03-13T01:13:50.565Z,7.15
2023-03-13T01:16:20.665Z,7.75
2023-03-13T01:18:51.486Z,7.20
2023-03-13T01:21:22.531Z,6.78
2023-03-13T01:23:52.423Z,7.32
2023-03-13T01:26:21.803Z,6.82
2023-03-13T01:28:50.697Z,6.82
2023-03-13T01:31:20.590Z,7.88
2023-03-13T01:33:50.407Z,7.10
2023-03-13T01:36:20.551Z,9.65
2023-03-13T01:38:50.674Z,8.48
2023-03-13T01:41:19.942Z,8.25
2023-03-13T01:43:48.463Z,7.22
2023-03-13T01:46:18.632Z,8.50
2023-03-13T01:48:52.154Z,9.70
2023-03-13T01:51:25.500Z,8.20
2023-03-13T01:53:58.518Z,9.15
2023-03-13T01:56:35.708Z,8.60
2023-03-13T01:59:05.839Z,8.23
2023-03-13T02:01:35.236Z,8.98
2023-03-13T02:04:03.928Z,9.13
2023-03-13T02:06:36.276Z,9.57
2023-03-13T02:09:08.419Z,9.00
2023-03-13T02:11:47.010Z,9.45
2023-03-13T02:14:15.294Z,9.77
2023-03-13T02:16:47.829Z,10.23
2023-03-13T02:19:21.391Z,9.80
2023-03-13T02:22:00.805Z,10.10
2023-03-13T02:24:37.172Z,10.70
2023-03-13T02:27:06.944Z,10.10
2023-03-13T02:29:35.293Z,10.15
2023-03-13T02:32:03.595Z,10.52
2023-03-13T02:34:35.512Z,10.65
2023-03-13T02:37:06.734Z,10.40
2023-03-13T02:39:36.574Z,10.60
2023-03-13T02:42:07.008Z,10.35
2023-03-13T02:44:40.057Z,10.68
2023-03-13T02:47:09.825Z,10.35
2023-03-13T02:49:38.423Z,10.48
2023-03-13T02:52:16.234Z,11.38
2023-03-13T02:54:47.234Z,10.80
2023-03-13T02:57:16.880Z,11.10
2023-03-13T02:59:45.185Z,10.98
2023-03-13T03:02:13.564Z,11.43
2023-03-13T03:04:41.867Z,10.90
2023-03-13T03:07:10.272Z,10.95
2023-03-13T03:09:38.560Z,12.93
2023-03-13T03:12:07.575Z,10.60
2023-03-13T03:14:37.437Z,12.23
2023-03-13T03:17:05.814Z,10.93
2023-03-13T03:19:34.052Z,11.05
2023-03-13T03:22:02.493Z,12.40
2023-03-13T03:24:30.814Z,12.15
2023-03-13T03:26:59.247Z,12.75
2023-03-13T03:29:28.062Z,12.35
2023-03-13T03:31:58.056Z,10.98
2023-03-13T03:34:26.403Z,12.27
2023-03-13T03:36:54.749Z,11.73
2023-03-13T03:39:23.022Z,11.38
2023-03-13T03:41:51.331Z,13.45
2023-03-13T03:44:19.580Z,12.60
2023-03-13T03:46:47.908Z,12.27
2023-03-13T03:49:17.581Z,13.40
2023-03-13T03:51:45.849Z,12.05
2023-03-13T03:54:14.126Z,12.10
2023-03-13T03:56:42.941Z,11.73
2023-03-13T03:59:11.295Z,11.95
2023-03-13T04:01:39.560Z,12.40
2023-03-13T04:04:08.096Z,11.63
2023-03-13T04:06:37.757Z,12.05
2023-03-13T04:09:06.201Z,11.18
2023-03-13T04:11:34.506Z,11.85
2023-03-13T04:14:02.768Z,11.75
2023-03-13T04:16:31.161Z,10.98
2023-03-13T04:18:59.519Z,11.57
2023-03-13T04:21:27.905Z,10.82
2023-03-13T04:23:57.581Z,11.63
2023-03-13T04:26:25.971Z,11.60
2023-03-13T04:28:54.407Z,11.00
2023-03-13T04:31:22.686Z,11.38
2023-03-13T04:33:50.957Z,10.13
2023-03-13T04:36:19.306Z,10.27
2023-03-13T04:38:47.567Z,9.63
2023-03-13T04:41:17.290Z,9.95
2023-03-13T04:43:45.557Z,9.70
2023-03-13T04:46:13.870Z,9.88
2023-03-13T04:48:42.213Z,8.95
2023-03-13T04:51:10.632Z,9.60
2023-03-13T04:53:38.946Z,9.30
2023-03-13T04:56:07.868Z,9.93
2023-03-13T04:58:37.552Z,8.52
2023-03-13T05:01:06.222Z,9.00
2023-03-13T05:03:34.531Z,8.25
2023-03-13T05:06:02.851Z,9.00
2023-03-13T05:08:31.102Z,9.57
2023-03-13T05:11:00.578Z,9.05
2023-03-13T05:13:28.819Z,9.23
2023-03-13T05:15:58.564Z,10.23
2023-03-13T05:18:27.217Z,9.88
2023-03-13T05:20:55.642Z,11.10
2023-03-13T05:23:24.213Z,18.80
2023-03-13T05:25:52.497Z,16.30
2023-03-13T05:28:20.930Z,10.95
2023-03-13T05:30:49.238Z,10.18
2023-03-13T05:33:19.604Z,9.35
2023-03-13T05:35:47.879Z,8.18
2023-03-13T05:38:16.696Z,9.50
2023-03-13T05:40:48.249Z,9.82
2023-03-13T05:43:16.544Z,10.18
2023-03-13T05:45:45.063Z,10.30
2023-03-13T05:48:13.349Z,11.02
2023-03-13T05:50:42.986Z,10.68
2023-03-13T05:53:11.209Z,7.57
2023-03-13T05:55:39.486Z,7.55
2023-03-13T05:58:08.020Z,9.52
2023-03-13T06:00:36.586Z,9.07
2023-03-13T06:03:05.024Z,7.82
2023-03-13T06:05:33.276Z,8.32
2023-03-13T06:08:03.726Z,7.50
2023-03-13T06:10:32.342Z,6.97
2023-03-13T06:13:13.705Z,7.72
2023-03-13T06:15:52.741Z,7.38
2023-03-13T06:18:21.251Z,7.50
2023-03-13T06:20:50.602Z,8.68
2023-03-13T06:23:20.256Z,6.72
2023-03-13T06:25:49.529Z,7.07
2023-03-13T06:28:17.834Z,7.05
2023-03-13T06:30:46.094Z,6.75
2023-03-13T06:33:14.527Z,7.00
2023-03-13T06:35:55.650Z,6.60
2023-03-13T06:38:25.885Z,7.10
2023-03-13T06:40:54.176Z,6.85
2023-03-13T06:43:22.930Z,6.68
2023-03-13T06:45:51.476Z,5.85
2023-03-13T06:48:20.287Z,6.45
2023-03-13T06:50:48.624Z,6.53
2023-03-13T06:53:18.754Z,6.40
2023-03-13T06:55:49.481Z,5.80
2023-03-13T06:58:31.048Z,6.20
2023-03-13T07:01:00.508Z,6.63
2023-03-13T07:03:29.003Z,6.15
2023-03-13T07:05:58.156Z,7.32
2023-03-13T07:08:27.147Z,7.20
2023-03-13T07:11:00.950Z,7.45
2023-03-13T07:13:29.455Z,7.93
2023-03-13T07:16:00.788Z,8.05
2023-03-13T07:18:29.151Z,7.68
2023-03-13T07:20:59.148Z,8.45
2023-03-13T07:23:29.490Z,7.55
2023-03-13T07:26:00.999Z,7.05
2023-03-13T07:28:31.686Z,8.23
2023-03-13T07:31:06.247Z,7.20
2023-03-13T07:33:34.960Z,8.15
2023-03-13T07:36:03.775Z,8.40
2023-03-13T07:38:32.069Z,8.50
2023-03-13T07:41:01.825Z,9.30
2023-03-13T07:43:31.521Z,10.82
2023-03-13T07:46:01.021Z,7.72
2023-03-13T07:48:32.313Z,7.50
2023-03-13T07:51:01.174Z,7.60
2023-03-13T07:53:30.014Z,5.38
2023-03-13T07:55:59.955Z,5.60
2023-03-13T07:58:31.845Z,5.30
2023-03-13T08:01:00.968Z,6.65
2023-03-13T08:03:30.220Z,4.18
2023-03-13T08:06:02.301Z,4.80
2023-03-13T08:08:30.881Z,5.47
2023-03-13T08:11:03.013Z,5.88
2023-03-13T08:13:33.497Z,5.65
2023-03-13T08:16:06.564Z,5.03
2023-03-13T08:18:39.865Z,6.38
2023-03-13T08:21:09.960Z,7.30
2023-03-13T08:23:39.068Z,3.50
2023-03-13T08:26:09.457Z,3.80
2023-03-13T08:28:40.174Z,3.50
2023-03-13T08:31:10.333Z,7.38
2023-03-13T08:33:38.885Z,5.03
2023-03-13T08:36:13.357Z,9.05
2023-03-13T08:38:45.962Z,7.10
2023-03-13T08:41:16.697Z,10.55
2023-03-13T08:43:46.923Z,13.38
2023-03-13T08:46:18.376Z,8.10
2023-03-13T08:48:51.446Z,18.40
2023-03-13T08:51:21.484Z,7.15
2023-03-13T08:53:50.431Z,4.00
2023-03-13T08:56:20.233Z,4.72
2023-03-13T08:58:53.171Z,4.05
2023-03-13T09:01:22.978Z,5.15
2023-03-13T09:03:52.652Z,4.60
2023-03-13T09:06:21.333Z,5.03
2023-03-13T09:08:49.710Z,4.22
2023-03-13T09:11:19.859Z,3.90
2023-03-13T09:13:50.123Z,4.65
2023-03-13T09:16:21.046Z,4.55
2023-03-13T09:18:50.217Z,5.13
2023-03-13T09:21:20.033Z,5.13
2023-03-13T09:23:49.292Z,4.85
2023-03-13T09:26:22.332Z,4.65
2023-03-13T09:28:51.903Z,4.95
2023-03-13T09:31:23.407Z,3.95
2023-03-13T09:33:52.609Z,5.07
2023-03-13T09:36:22.927Z,4.80
2023-03-13T09:38:51.728Z,4.30
2023-03-13T09:41:27.654Z,5.00
2023-03-13T09:44:03.075Z,4.50
2023-03-13T09:46:42.308Z,4.07
2023-03-13T09:49:20.643Z,4.00
2023-03-13T09:51:54.702Z,4.22
2023-03-13T09:54:27.080Z,3.05
2023-03-13T09:57:00.052Z,3.33
2023-03-13T09:59:33.070Z,4.15
2023-03-13T10:02:06.639Z,5.10
2023-03-13T10:04:43.077Z,4.97
2023-03-13T10:07:12.892Z,4.90
2023-03-13T10:09:42.933Z,4.60
2023-03-13T10:12:17.482Z,5.25
2023-03-13T10:14:54.550Z,4.15
2023-03-13T10:17:34.449Z,5.18
2023-03-13T10:20:14.962Z,4.00
2023-03-13T10:22:45.426Z,5.15
2023-03-13T10:25:26.039Z,4.90
2023-03-13T10:27:55.550Z,4.88
2023-03-13T10:30:26.762Z,6.70
2023-03-13T10:33:00.860Z,5.15
2023-03-13T10:35:34.932Z,4.53
2023-03-13T10:38:07.194Z,5.35
2023-03-13T10:40:35.905Z,7.32
2023-03-13T10:43:07.447Z,5.28
2023-03-13T10:45:38.160Z,4.70
2023-03-13T10:48:14.737Z,5.05
2023-03-13T10:50:45.538Z,4.82
2023-03-13T10:53:26.783Z,5.60
2023-03-13T10:55:56.873Z,5.82
2023-03-13T10:58:30.602Z,4.75
2023-03-13T11:01:19.365Z,4.45
2023-03-13T11:03:50.676Z,4.80
2023-03-13T11:06:28.511Z,4.70
2023-03-13T11:09:13.167Z,5.75
2023-03-13T11:11:50.363Z,5.10
2023-03-13T11:14:21.322Z,4.80
2023-03-13T11:16:52.143Z,4.43
2023-03-13T11:19:55.216Z,5.20
2023-03-13T11:22:42.101Z,4.65
2023-03-13T11:25:33.407Z,4.20
2023-03-13T11:28:27.984Z,4.47
2023-03-13T11:31:10.684Z,4.38
2023-03-13T11:33:47.510Z,4.70
2023-03-13T11:36:25.553Z,4.25
2023-03-13T11:38:57.524Z,4.32
2023-03-13T11:41:38.418Z,4.43
2023-03-13T11:44:21.260Z,3.97
2023-03-13T11:47:00.819Z,4.43
2023-03-13T11:49:54.022Z,3.80
2023-03-13T11:52:39.974Z,3.05
2023-03-13T11:55:31.903Z,3.15
2023-03-13T11:58:16.049Z,3.35
2023-03-13T12:00:49.569Z,3.50
2023-03-13T12:03:20.467Z,2.90
2023-03-13T12:05:52.776Z,3.45
2023-03-13T12:08:29.076Z,3.88
2023-03-13T12:11:07.964Z,3.65
2023-03-13T12:13:40.171Z,3.70
2023-03-13T12:16:13.630Z,4.03
2023-03-13T12:18:43.701Z,3.83
2023-03-13T12:21:20.068Z,4.15
2023-03-13T12:23:58.673Z,3.40
2023-03-13T12:26:37.055Z,4.22
2023-03-13T12:29:14.678Z,3.85
2023-03-13T12:31:47.234Z,3.92
2023-03-13T12:34:21.588Z,3.50
2023-03-13T12:36:53.364Z,3.38
2023-03-13T12:39:31.499Z,3.15
2023-03-13T12:42:18.295Z,3.55
2023-03-13T12:44:47.254Z,3.10
2023-03-13T12:47:20.438Z,3.25
2023-03-13T12:50:25.304Z,3.28
2023-03-13T12:53:24.433Z,3.92
2023-03-13T12:56:19.639Z,3.38
2023-03-13T12:58:51.122Z,3.63
2023-03-13T13:01:36.169Z,3.92
2023-03-13T13:04:08.347Z,4.07
2023-03-13T13:06:56.168Z,4.60
2023-03-13T13:09:25.943Z,4.13
2023-03-13T13:11:57.067Z,4.40
2023-03-13T13:15:16.523Z,4.30
2023-03-13T13:18:04.831Z,3.85
2023-03-13T13:20:39.627Z,4.20
2023-03-13T13:23:35.066Z,4.28
2023-03-13T13:26:51.944Z,3.83
2023-03-13T13:29:55.303Z,4.05
2023-03-13T13:32:47.299Z,3.95
2023-03-13T13:35:33.806Z,4.20
2023-03-13T13:38:36.754Z,4.68
2023-03-13T13:41:22.094Z,4.70
2023-03-13T13:43:51.965Z,3.92
2023-03-13T13:46:28.777Z,4.50
2023-03-13T13:49:15.949Z,4.68
2023-03-13T13:52:04.557Z,4.93
2023-03-13T13:54:34.703Z,4.00
2023-03-13T13:57:09.343Z,4.28
2023-03-13T13:59:50.420Z,4.10
2023-03-13T14:02:31.833Z,3.92
2023-03-13T14:05:08.152Z,3.38
2023-03-13T14:07:50.064Z,4.10
2023-03-13T14:10:31.768Z,3.60
2023-03-13T14:13:02.289Z,3.00
2023-03-13T14:15:32.224Z,2.95
2023-03-13T14:18:12.112Z,3.00
2023-03-13T14:20:41.493Z,3.35
2023-03-13T14:23:12.870Z,3.20
2023-03-13T14:25:47.010Z,3.55
2023-03-13T14:28:20.299Z,3.22
2023-03-13T14:30:50.312Z,3.30
2023-03-13T14:33:20.054Z,3.70
2023-03-13T14:35:49.144Z,2.55
2023-03-13T14:38:19.937Z,2.60
2023-03-13T14:40:54.953Z,2.20
2023-03-13T14:43:38.339Z,2.80
2023-03-13T14:46:16.698Z,1.80
2023-03-13T14:48:49.581Z,1.85
2023-03-13T14:51:23.529Z,1.77
2023-03-13T14:53:56.738Z,1.83
2023-03-13T14:56:34.456Z,1.80
2023-03-13T14:59:18.363Z,1.77
2023-03-13T15:01:47.546Z,2.00
2023-03-13T15:04:17.272Z,1.98
2023-03-13T15:06:46.005Z,1.70
2023-03-13T15:09:20.296Z,1.83
2023-03-13T15:11:59.491Z,2.20
2023-03-13T15:14:37.743Z,2.25
2023-03-13T15:17:18.140Z,1.98
2023-03-13T15:19:52.397Z,2.10
2023-03-13T15:22:26.098Z,2.65
2023-03-13T15:25:05.757Z,2.20
2023-03-13T15:27:35.524Z,2.78
2023-03-13T15:30:03.977Z,2.20
2023-03-13T15:32:34.856Z,2.38
2023-03-13T15:35:20.774Z,1.60
2023-03-13T15:37:49.025Z,2.58
2023-03-13T15:40:19.039Z,4.18
2023-03-13T15:42:53.064Z,2.00
2023-03-13T15:45:21.596Z,2.00
2023-03-13T15:47:50.106Z,2.10
2023-03-13T15:50:22.919Z,2.33
2023-03-13T15:52:51.372Z,3.80
2023-03-13T15:55:26.729Z,3.45
2023-03-13T15:57:55.014Z,3.78
2023-03-13T16:00:25.180Z,3.00
2023-03-13T16:02:53.817Z,3.15
2023-03-13T16:05:23.529Z,2.83
2023-03-13T16:07:51.964Z,3.92
2023-03-13T16:10:25.129Z,3.25
2023-03-13T16:12:56.864Z,3.92
2023-03-13T16:15:25.606Z,3.67
2023-03-13T16:17:53.850Z,3.25
2023-03-13T16:20:28.997Z,3.10
2023-03-13T16:22:57.780Z,2.33
2023-03-13T16:25:26.337Z,2.45
2023-03-13T16:27:57.214Z,2.63
2023-03-13T16:30:27.873Z,2.70
2023-03-13T16:32:56.218Z,2.92
2023-03-13T16:35:27.781Z,16.30
2023-03-13T16:37:56.719Z,6.32
2023-03-13T16:40:27.476Z,7.95
2023-03-13T16:42:58.820Z,3.75
2023-03-13T16:45:27.487Z,3.80
2023-03-13T16:47:55.814Z,3.67
2023-03-13T16:50:30.359Z,3.30
2023-03-13T16:52:58.558Z,3.53
2023-03-13T16:55:28.727Z,3.05
2023-03-13T16:57:57.632Z,2.75
2023-03-13T17:00:31.243Z,2.50
2023-03-13T17:03:01.498Z,2.55
2023-03-13T17:05:31.464Z,3.95
2023-03-13T17:07:59.709Z,13.52
2023-03-13T17:10:30.244Z,11.73
2023-03-13T17:12:58.627Z,7.95
2023-03-13T17:15:30.987Z,4.97
2023-03-13T17:18:00.100Z,5.57
2023-03-13T17:20:31.611Z,12.25
2023-03-13T17:23:01.263Z,10.68
2023-03-13T17:25:29.713Z,20.92
2023-03-13T17:27:57.966Z,16.27
2023-03-13T17:30:28.255Z,15.10
2023-03-13T17:32:56.836Z,22.35
2023-03-13T17:35:28.248Z,3.20
2023-03-13T17:37:57.893Z,6.30
2023-03-13T17:40:28.612Z,10.25
2023-03-13T17:43:00.045Z,4.53
2023-03-13T17:45:28.651Z,5.53
2023-03-13T17:47:57.270Z,7.25
2023-03-13T17:50:27.581Z,14.05
2023-03-13T17:52:57.385Z,11.05
2023-03-13T17:55:25.646Z,11.05
2023-03-13T17:57:57.009Z,14.77
2023-03-13T18:00:31.781Z,6.00
2023-03-13T18:03:00.899Z,6.55
2023-03-13T18:05:30.247Z,4.50
2023-03-13T18:08:02.963Z,4.45
2023-03-13T18:10:32.177Z,4.13
2023-03-13T18:13:00.524Z,4.20
2023-03-13T18:15:28.991Z,2.83
2023-03-13T18:17:57.243Z,4.30
2023-03-13T18:20:27.354Z,17.02
2023-03-13T18:22:59.352Z,15.70
2023-03-13T18:25:29.323Z,14.30
2023-03-13T18:27:57.649Z,6.53
2023-03-13T18:30:27.235Z,13.68
2023-03-13T18:32:56.184Z,6.45
2023-03-13T18:35:24.604Z,10.10
2023-03-13T18:37:52.832Z,3.97
2023-03-13T18:40:30.393Z,3.92
2023-03-13T18:42:58.650Z,5.20
2023-03-13T18:45:33.487Z,4.75
2023-03-13T18:48:04.964Z,6.43
2023-03-13T18:50:33.926Z,4.55
2023-03-13T18:53:02.286Z,9.60
2023-03-13T18:55:33.287Z,5.15
2023-03-13T18:58:07.924Z,3.08
2023-03-13T19:00:42.553Z,2.58
2023-03-13T19:03:10.969Z,3.80
2023-03-13T19:05:39.215Z,3.42
2023-03-13T19:08:10.342Z,2.50
2023-03-13T19:10:42.626Z,2.72
2023-03-13T19:13:11.301Z,2.25
2023-03-13T19:15:42.096Z,2.90
2023-03-13T19:18:16.338Z,3.30
2023-03-13T19:20:44.629Z,2.80
2023-03-13T19:23:13.014Z,2.83
2023-03-13T19:25:42.671Z,2.40
2023-03-13T19:28:20.596Z,1.92
2023-03-13T19:30:49.093Z,2.30
2023-03-13T19:33:17.357Z,2.75
2023-03-13T19:35:45.701Z,2.70
2023-03-13T19:38:17.236Z,2.45
2023-03-13T19:40:47.172Z,2.50
2023-03-13T19:43:18.091Z,3.00
2023-03-13T19:45:47.829Z,2.55
2023-03-13T19:48:19.246Z,1.98
2023-03-13T19:50:50.342Z,2.70
2023-03-13T19:53:18.616Z,2.50
2023-03-13T19:55:48.230Z,2.63
2023-03-13T19:58:16.483Z,2.88
2023-03-13T20:00:44.861Z,2.10
2023-03-13T20:03:13.139Z,3.65
2023-03-13T20:05:41.712Z,2.80
2023-03-13T20:08:10.028Z,2.92
2023-03-13T20:10:38.414Z,2.85
2023-03-13T20:13:08.349Z,2.50
2023-03-13T20:15:39.745Z,2.85
2023-03-13T20:18:08.006Z,2.85
2023-03-13T20:20:36.298Z,3.13
2023-03-13T20:23:04.641Z,3.03
2023-03-13T20:25:35.579Z,2.50
2023-03-13T20:28:03.801Z,3.10
2023-03-13T20:30:33.452Z,2.65
2023-03-13T20:33:08.115Z,2.30
2023-03-13T20:35:36.432Z,2.90
2023-03-13T20:38:07.915Z,3.10
2023-03-13T20:40:36.861Z,2.80
2023-03-13T20:43:05.378Z,4.00
2023-03-13T20:45:35.042Z,3.60
2023-03-13T20:48:03.584Z,2.80
2023-03-13T20:50:32.311Z,2.53
2023-03-13T20:53:00.552Z,2.00
2023-03-13T20:55:30.371Z,1.50
2023-03-13T20:57:58.664Z,1.75
2023-03-13T21:00:27.348Z,1.48
2023-03-13T21:02:56.989Z,1.52
2023-03-13T21:05:25.297Z,1.42
2023-03-13T21:07:54.178Z,1.40
2023-03-13T21:10:25.537Z,1.90
2023-03-13T21:12:53.745Z,1.23
2023-03-13T21:15:25.075Z,1.27
2023-03-13T21:17:53.852Z,1.33
2023-03-13T21:20:26.743Z,1.60
2023-03-13T21:22:54.985Z,1.67
2023-03-13T21:25:29.300Z,1.52
2023-03-13T21:27:57.555Z,1.40
2023-03-13T21:30:25.893Z,1.67
2023-03-13T21:32:54.552Z,1.40
2023-03-13T21:35:24.489Z,1.40
2023-03-13T21:37:52.681Z,1.30
2023-03-13T21:40:20.988Z,1.10
2023-03-13T21:42:49.242Z,1.27
2023-03-13T21:45:20.621Z,1.30
2023-03-13T21:47:48.906Z,1.65
2023-03-13T21:50:17.152Z,1.20
2023-03-13T21:52:46.798Z,1.38
2023-03-13T21:55:15.345Z,0.90
2023-03-13T21:57:52.190Z,0.90
2023-03-13T22:00:20.899Z,1.00
2023-03-13T22:02:49.167Z,1.20
2023-03-13T22:05:17.465Z,0.95
2023-03-13T22:07:47.312Z,1.00
2023-03-13T22:10:15.577Z,1.10
2023-03-13T22:12:43.773Z,1.20
2023-03-13T22:15:12.724Z,1.17
2023-03-13T22:17:41.002Z,1.02
2023-03-13T22:20:10.688Z,1.00
2023-03-13T22:22:39.023Z,1.00
2023-03-13T22:25:09.667Z,1.33
2023-03-13T22:27:37.898Z,1.20
2023-03-13T22:30:07.531Z,1.00
2023-03-13T22:32:35.803Z,0.90
2023-03-13T22:35:04.217Z,1.40
2023-03-13T22:37:32.514Z,1.85
2023-03-13T22:40:00.737Z,1.52
2023-03-13T22:42:30.501Z,1.60
2023-03-13T22:44:58.892Z,2.00
2023-03-13T22:47:27.150Z,2.30
2023-03-13T22:49:55.424Z,2.20
2023-03-13T22:52:29.072Z,2.00
2023-03-13T22:54:57.513Z,2.30
2023-03-13T22:57:25.904Z,2.40
2023-03-13T22:59:55.633Z,3.38
2023-03-13T23:02:23.871Z,3.55
2023-03-13T23:04:52.219Z,3.88
2023-03-13T23:07:21.285Z,4.25
2023-03-13T23:09:49.527Z,5.10
2023-03-13T23:12:17.751Z,4.95
2023-03-13T23:14:46.253Z,4.88
2023-03-13T23:17:16.147Z,4.68
2023-03-13T23:19:44.429Z,5.20
2023-03-13T23:22:17.900Z,4.85
2023-03-13T23:24:46.506Z,6.28
2023-03-13T23:27:14.818Z,6.28
2023-03-13T23:29:43.067Z,6.35
2023-03-13T23:32:11.323Z,6.10
2023-03-13T23:34:40.952Z,6.68
2023-03-13T23:37:09.248Z,6.15
2023-03-13T23:39:38.478Z,7.38
2023-03-13T23:42:08.369Z,7.53
2023-03-13T23:44:36.857Z,6.30
2023-03-13T23:47:05.125Z,7.68
2023-03-13T23:49:33.418Z,7.72
2023-03-13T23:52:03.280Z,6.55
2023-03-13T23:54:31.509Z,6.47
2023-03-13T23:56:59.826Z,7.30
2023-03-13T23:59:28.056Z,6.47
